Time;durP1;ratioP1;P1;durP2;ratioP2;P2;SDS_P1;SDS_P2;PMS_P1;PMS_P2;Temp;Humidity;BMP_temperature;BMP_pressure;BME280_temperature;BME280_humidity;BME280_pressure;Samples;Min_cycle;Max_cycle;Signal;HPM_P1;HPM_P2
2023/06/12 00:01:39;;;;;;;5.88;3.20;;;18.50;99.90;;;;;;5094320;28;20047;-76
2023/06/12 00:04:08;;;;;;;10.73;3.80;;;18.50;99.90;;;;;;5094228;28;20075;-76
2023/06/12 00:06:35;;;;;;;7.55;3.70;;;18.40;99.90;;;;;;5094183;28;20123;-75
2023/06/12 00:09:01;;;;;;;7.20;3.08;;;18.40;99.90;;;;;;5094143;28;20105;-76
2023/06/12 00:11:27;;;;;;;9.48;3.47;;;18.40;99.90;;;;;;5094083;28;20039;-76
2023/06/12 00:13:53;;;;;;;5.55;3.00;;;18.30;99.90;;;;;;5094593;28;20039;-77
2023/06/12 00:16:18;;;;;;;8.93;3.17;;;18.30;99.90;;;;;;5094054;28;20059;-77
2023/06/12 00:18:44;;;;;;;9.07;3.42;;;18.30;99.90;;;;;;5093945;28;20048;-76
2023/06/12 00:21:11;;;;;;;5.25;3.10;;;18.20;99.90;;;;;;5094064;28;20044;-77
2023/06/12 00:23:39;;;;;;;5.90;2.90;;;18.20;99.90;;;;;;5092322;28;20087;-77
2023/06/12 00:26:04;;;;;;;7.15;3.38;;;18.20;99.90;;;;;;5093870;28;20079;-76
2023/06/12 00:28:31;;;;;;;7.60;3.45;;;18.10;99.90;;;;;;5093658;28;20492;-82
2023/06/12 00:30:56;;;;;;;5.90;3.38;;;18.00;99.90;;;;;;5093908;28;20044;-78
2023/06/12 00:33:22;;;;;;;7.18;3.40;;;18.00;99.90;;;;;;5093920;28;20368;-84
2023/06/12 00:35:48;;;;;;;10.10;3.30;;;18.00;99.90;;;;;;5093764;28;20097;-77
2023/06/12 00:38:14;;;;;;;7.30;3.40;;;18.00;99.90;;;;;;5093306;28;20089;-76
2023/06/12 00:40:41;;;;;;;6.63;3.45;;;17.90;99.90;;;;;;5093525;28;20085;-76
2023/06/12 00:43:08;;;;;;;9.07;3.30;;;17.90;99.90;;;;;;5093790;28;20039;-76
2023/06/12 00:45:35;;;;;;;8.15;3.33;;;17.80;99.90;;;;;;5093687;28;20048;-76
2023/06/12 00:48:03;;;;;;;6.32;2.90;;;17.80;99.90;;;;;;5093742;28;20048;-76
2023/06/12 00:50:28;;;;;;;6.18;3.25;;;17.60;99.90;;;;;;5093690;28;20072;-76
2023/06/12 00:52:56;;;;;;;6.50;3.47;;;17.60;99.90;;;;;;5093616;28;20076;-76
2023/06/12 00:55:22;;;;;;;5.32;3.55;;;17.60;99.90;;;;;;5093642;28;20040;-76
2023/06/12 00:57:48;;;;;;;5.97;3.30;;;17.50;99.90;;;;;;5093895;28;20083;-76
2023/06/12 01:00:17;;;;;;;7.85;3.55;;;17.60;99.90;;;;;;5093610;28;20051;-75
2023/06/12 01:02:53;;;;;;;7.20;3.40;;;17.50;99.90;;;;;;5093449;28;20044;-76
2023/06/12 01:05:22;;;;;;;7.60;3.10;;;17.40;99.90;;;;;;5093486;28;20093;-75
2023/06/12 01:08:16;;;;;;;7.32;3.20;;;17.40;99.90;;;;;;5093503;28;20047;-76
2023/06/12 01:10:56;;;;;;;8.75;3.35;;;17.40;99.90;;;;;;5092165;28;20533;-76
2023/06/12 01:13:22;;;;;;;12.90;3.88;;;17.30;99.90;;;;;;5093450;28;20483;-76
2023/06/12 01:15:48;;;;;;;7.35;3.20;;;17.30;99.90;;;;;;5093432;28;20046;-76
2023/06/12 01:18:14;;;;;;;6.47;3.45;;;17.30;99.90;;;;;;5092137;28;20040;-76
2023/06/12 01:20:41;;;;;;;7.28;3.65;;;17.20;99.90;;;;;;5093410;28;20044;-76
2023/06/12 01:23:51;;;;;;;6.72;3.45;;;17.10;99.90;;;;;;5092982;28;20513;-76
2023/06/12 01:26:29;;;;;;;7.32;3.38;;;17.10;99.90;;;;;;5048203;28;20040;-76
2023/06/12 01:28:54;;;;;;;7.45;3.67;;;17.10;99.90;;;;;;5093200;28;20127;-76
2023/06/12 01:31:31;;;;;;;8.90;3.80;;;17.00;99.90;;;;;;5092187;28;20127;-76
2023/06/12 01:34:13;;;;;;;5.38;3.15;;;16.90;99.90;;;;;;5093246;28;20468;-76
2023/06/12 01:36:43;;;;;;;8.63;3.60;;;16.90;99.90;;;;;;5093133;28;20048;-76
2023/06/12 01:39:11;;;;;;;8.93;3.63;;;16.90;99.90;;;;;;5091986;28;20048;-76
2023/06/12 01:41:38;;;;;;;8.60;3.80;;;16.90;99.90;;;;;;5093233;28;20092;-76
2023/06/12 01:44:08;;;;;;;6.95;3.65;;;16.90;99.90;;;;;;5093062;28;20452;-76
2023/06/12 01:46:34;;;;;;;12.23;3.60;;;16.80;99.90;;;;;;5091784;28;20555;-76
2023/06/12 01:49:00;;;;;;;7.60;3.33;;;16.70;99.90;;;;;;5093166;28;20128;-76
2023/06/12 01:51:25;;;;;;;9.18;3.78;;;16.70;99.90;;;;;;5095818;28;20044;-78
2023/06/12 01:53:51;;;;;;;8.50;3.35;;;16.70;99.90;;;;;;5096686;28;20119;-78
2023/06/12 01:56:17;;;;;;;7.82;3.97;;;16.70;99.90;;;;;;5096677;28;20100;-78
2023/06/12 01:58:43;;;;;;;8.43;3.90;;;16.70;99.90;;;;;;5095243;28;20044;-78
2023/06/12 02:01:10;;;;;;;8.50;3.53;;;16.70;99.90;;;;;;5095295;28;20048;-78
2023/06/12 02:03:37;;;;;;;6.25;3.97;;;16.60;99.90;;;;;;5095232;28;20044;-77
2023/06/12 02:06:03;;;;;;;7.18;3.15;;;16.70;99.90;;;;;;5096201;28;20078;-78
2023/06/12 02:08:28;;;;;;;6.07;3.90;;;16.60;99.90;;;;;;5094943;28;20047;-85
2023/06/12 02:10:54;;;;;;;9.95;4.22;;;16.50;99.90;;;;;;5095010;28;20043;-83
2023/06/12 02:13:20;;;;;;;9.25;3.90;;;16.50;99.90;;;;;;5096342;28;20082;-81
2023/06/12 02:15:46;;;;;;;11.02;4.10;;;16.50;99.90;;;;;;5095187;28;20043;-79
2023/06/12 02:18:11;;;;;;;8.18;4.00;;;16.50;99.90;;;;;;5096772;28;20036;-81
2023/06/12 02:20:37;;;;;;;9.48;3.85;;;16.40;99.90;;;;;;5094937;28;20043;-80
2023/06/12 02:23:05;;;;;;;8.57;3.47;;;16.50;99.90;;;;;;5095876;28;20092;-89
2023/06/12 02:25:31;;;;;;;10.35;4.40;;;16.50;99.90;;;;;;5096007;28;20048;-88
2023/06/12 02:27:56;;;;;;;9.02;3.92;;;16.50;99.90;;;;;;5096133;28;20050;-76
2023/06/12 02:30:22;;;;;;;9.75;4.03;;;16.40;99.90;;;;;;5096254;28;20046;-76
2023/06/12 02:32:49;;;;;;;10.27;4.22;;;16.40;99.90;;;;;;5094759;28;20123;-76
2023/06/12 02:35:15;;;;;;;7.45;4.05;;;16.30;99.90;;;;;;5095933;28;20097;-76
2023/06/12 02:37:40;;;;;;;7.57;4.13;;;16.40;99.90;;;;;;5095740;28;20044;-76
2023/06/12 02:40:07;;;;;;;14.32;4.57;;;16.40;99.90;;;;;;5094654;28;20051;-76
2023/06/12 02:42:32;;;;;;;7.13;4.28;;;16.30;99.90;;;;;;5096267;28;20139;-77
2023/06/12 02:44:58;;;;;;;5.60;3.90;;;16.30;99.90;;;;;;5095806;28;20127;-78
2023/06/12 02:47:23;;;;;;;10.82;4.25;;;16.30;99.90;;;;;;5094433;28;20044;-76
2023/06/12 02:49:49;;;;;;;9.15;4.75;;;16.20;99.90;;;;;;5095557;28;20044;-76
2023/06/12 02:52:15;;;;;;;8.13;3.88;;;16.20;99.90;;;;;;5094527;28;20391;-76
2023/06/12 02:54:40;;;;;;;9.63;4.93;;;16.10;99.90;;;;;;5095352;28;20153;-76
2023/06/12 02:57:06;;;;;;;6.85;4.00;;;16.10;99.90;;;;;;5093948;28;20080;-76
2023/06/12 02:59:32;;;;;;;9.18;4.32;;;16.10;99.90;;;;;;5093843;28;20097;-76
2023/06/12 03:01:57;;;;;;;8.35;4.30;;;16.10;99.90;;;;;;5093636;28;20119;-76
2023/06/12 03:04:24;;;;;;;7.68;4.18;;;16.00;99.90;;;;;;5094616;28;20043;-76
2023/06/12 03:06:53;;;;;;;8.02;4.32;;;16.10;99.90;;;;;;5095401;28;20083;-76
2023/06/12 03:09:20;;;;;;;9.68;4.93;;;16.00;99.90;;;;;;5095020;28;20044;-76
2023/06/12 03:11:47;;;;;;;11.50;4.47;;;16.00;99.90;;;;;;5094026;28;20044;-76
2023/06/12 03:14:13;;;;;;;10.60;4.38;;;16.00;99.90;;;;;;5093629;28;20052;-76
2023/06/12 03:16:40;;;;;;;9.95;4.13;;;15.90;99.90;;;;;;5093634;28;20055;-76
2023/06/12 03:19:06;;;;;;;8.13;4.45;;;16.00;99.90;;;;;;5093511;28;20119;-75
2023/06/12 03:21:32;;;;;;;8.43;4.65;;;15.90;99.90;;;;;;5094763;28;20531;-76
2023/06/12 03:23:59;;;;;;;9.38;4.47;;;15.90;99.90;;;;;;5094635;28;20052;-77
2023/06/12 03:26:27;;;;;;;15.07;4.63;;;15.90;99.90;;;;;;5094753;28;20048;-76
2023/06/12 03:28:53;;;;;;;11.48;4.53;;;16.00;99.90;;;;;;5093397;28;20075;-76
2023/06/12 03:31:19;;;;;;;9.88;4.43;;;15.90;99.90;;;;;;5093615;28;20044;-76
2023/06/12 03:33:45;;;;;;;7.40;4.65;;;15.90;99.90;;;;;;5093293;28;20502;-76
2023/06/12 03:36:11;;;;;;;8.93;4.30;;;15.90;99.90;;;;;;5093487;28;20102;-76
2023/06/12 03:38:37;;;;;;;9.32;4.20;;;15.90;99.90;;;;;;5094753;28;20044;-75
2023/06/12 03:41:02;;;;;;;8.25;4.18;;;15.90;99.90;;;;;;5094631;28;20048;-76
2023/06/12 03:43:28;;;;;;;9.90;4.13;;;15.90;99.90;;;;;;5094613;28;20070;-76
2023/06/12 03:45:53;;;;;;;8.93;4.47;;;15.80;99.90;;;;;;5094223;28;20550;-76
2023/06/12 03:48:19;;;;;;;11.73;4.55;;;15.90;99.90;;;;;;5093216;28;20048;-76
2023/06/12 03:50:45;;;;;;;8.63;4.35;;;15.90;99.90;;;;;;5094475;28;20067;-76
2023/06/12 03:53:11;;;;;;;9.13;4.30;;;15.90;99.90;;;;;;5093215;28;20511;-76
2023/06/12 03:55:36;;;;;;;9.77;4.50;;;15.90;99.90;;;;;;5093041;28;20052;-76
2023/06/12 03:58:02;;;;;;;7.95;4.05;;;15.80;99.90;;;;;;5094498;28;20047;-76
2023/06/12 04:00:28;;;;;;;10.20;5.03;;;15.90;99.90;;;;;;5094307;28;20040;-76
2023/06/12 04:02:54;;;;;;;10.45;4.72;;;15.80;99.90;;;;;;5094098;28;20452;-77
2023/06/12 04:05:20;;;;;;;8.50;4.75;;;15.90;99.90;;;;;;5092903;28;20567;-77
2023/06/12 04:07:46;;;;;;;10.95;4.68;;;15.90;99.90;;;;;;5092967;28;20048;-76
2023/06/12 04:10:12;;;;;;;8.02;4.70;;;16.00;99.90;;;;;;5093988;28;20070;-76
2023/06/12 04:12:38;;;;;;;10.02;4.55;;;16.10;99.90;;;;;;5091975;28;20380;-76
2023/06/12 04:15:04;;;;;;;13.10;4.68;;;16.20;99.90;;;;;;5092823;28;20489;-76
2023/06/12 04:17:30;;;;;;;11.13;4.68;;;16.20;99.90;;;;;;5093897;28;20054;-76
2023/06/12 04:19:56;;;;;;;9.15;4.45;;;16.30;99.90;;;;;;5093733;28;20110;-76
2023/06/12 04:22:25;;;;;;;8.48;4.65;;;16.40;99.90;;;;;;5093466;28;20502;-76
2023/06/12 04:24:53;;;;;;;9.02;5.20;;;16.50;99.90;;;;;;5093954;28;20079;-76
2023/06/12 04:27:19;;;;;;;10.77;4.68;;;16.60;99.90;;;;;;5093654;28;20503;-76
2023/06/12 04:29:45;;;;;;;8.77;4.68;;;16.60;99.90;;;;;;5093680;28;20051;-76
2023/06/12 04:32:13;;;;;;;10.90;5.00;;;16.70;99.90;;;;;;5092863;28;20056;-76
2023/06/12 04:34:41;;;;;;;8.27;4.68;;;16.80;99.90;;;;;;5092295;28;20122;-76
2023/06/12 04:37:11;;;;;;;8.32;4.55;;;17.00;99.90;;;;;;5093919;28;20115;-76
2023/06/12 04:39:38;;;;;;;7.82;4.15;;;17.00;99.90;;;;;;5093520;28;20513;-76
2023/06/12 04:42:08;;;;;;;6.43;4.25;;;17.00;99.90;;;;;;5092521;28;20123;-76
2023/06/12 04:44:37;;;;;;;7.47;4.72;;;17.10;99.90;;;;;;5092606;28;20515;-76
2023/06/12 04:47:10;;;;;;;9.07;4.68;;;17.30;99.90;;;;;;5092219;28;20051;-76
2023/06/12 04:49:45;;;;;;;8.93;4.70;;;17.40;99.90;;;;;;5092850;28;20040;-76
2023/06/12 04:52:12;;;;;;;9.38;4.40;;;17.50;99.90;;;;;;5093689;28;20032;-76
2023/06/12 04:54:41;;;;;;;8.27;4.47;;;17.60;99.90;;;;;;5092167;28;20051;-77
2023/06/12 04:57:12;;;;;;;10.32;4.35;;;17.70;99.90;;;;;;5092355;28;20051;-76
2023/06/12 04:59:39;;;;;;;8.10;4.60;;;17.80;99.90;;;;;;5093721;28;20040;-76
2023/06/12 05:02:06;;;;;;;8.93;4.72;;;17.90;99.90;;;;;;5092520;28;20475;-77
2023/06/12 05:04:32;;;;;;;7.88;4.47;;;18.00;99.90;;;;;;5093501;28;20093;-77
2023/06/12 05:06:59;;;;;;;10.80;4.35;;;18.00;99.90;;;;;;5093356;28;20454;-77
2023/06/12 05:09:25;;;;;;;10.55;4.70;;;18.20;99.90;;;;;;5092350;28;20039;-77
2023/06/12 05:11:51;;;;;;;8.02;4.63;;;18.20;99.90;;;;;;5092153;28;20141;-77
2023/06/12 05:14:17;;;;;;;7.38;4.72;;;18.30;99.90;;;;;;5093753;28;20080;-77
2023/06/12 05:16:46;;;;;;;8.27;4.80;;;18.40;99.90;;;;;;5091879;28;20050;-77
2023/06/12 05:19:12;;;;;;;9.05;4.57;;;18.50;99.90;;;;;;5091899;28;20044;-76
2023/06/12 05:21:41;;;;;;;8.55;4.93;;;18.70;99.90;;;;;;5092097;28;20051;-79
2023/06/12 05:24:08;;;;;;;10.18;4.60;;;18.70;99.90;;;;;;5092310;28;20060;-78
2023/06/12 05:26:34;;;;;;;8.00;4.57;;;18.70;99.90;;;;;;5097036;28;20051;-77
2023/06/12 05:29:01;;;;;;;10.27;4.97;;;18.70;99.90;;;;;;5095600;28;20127;-78
2023/06/12 05:31:28;;;;;;;7.82;4.97;;;18.90;99.90;;;;;;5097012;28;20123;-77
2023/06/12 05:33:55;;;;;;;9.82;4.68;;;19.00;99.90;;;;;;5097079;28;20044;-77
2023/06/12 05:36:20;;;;;;;7.75;4.68;;;19.00;99.90;;;;;;5095597;28;20039;-78
2023/06/12 05:38:46;;;;;;;8.88;5.30;;;19.10;99.90;;;;;;5096604;28;20044;-78
2023/06/12 05:41:16;;;;;;;10.02;4.60;;;19.40;99.90;;;;;;5096996;28;20064;-78
2023/06/12 05:43:44;;;;;;;7.95;4.82;;;19.50;99.90;;;;;;5095508;28;20040;-77
2023/06/12 05:46:10;;;;;;;10.73;4.72;;;19.40;99.90;;;;;;5096739;28;20055;-77
2023/06/12 05:48:36;;;;;;;9.88;4.75;;;19.50;99.90;;;;;;5096784;28;20040;-78
2023/06/12 05:51:07;;;;;;;8.50;4.40;;;19.50;99.90;;;;;;5095343;28;20384;-77
2023/06/12 05:53:33;;;;;;;8.00;5.00;;;19.70;99.90;;;;;;5096767;28;20036;-78
2023/06/12 05:55:59;;;;;;;12.73;5.00;;;19.60;99.90;;;;;;5095165;28;20044;-78
2023/06/12 05:58:25;;;;;;;8.27;4.97;;;19.50;99.90;;;;;;5095295;28;20165;-79
2023/06/12 06:00:53;;;;;;;10.07;5.20;;;19.50;99.90;;;;;;5095101;28;20108;-78
2023/06/12 06:03:19;;;;;;;9.35;4.68;;;19.70;99.90;;;;;;5094910;28;20433;-78
2023/06/12 06:05:48;;;;;;;8.73;4.40;;;19.70;99.90;;;;;;5094876;28;20063;-78
2023/06/12 06:08:14;;;;;;;8.48;4.60;;;19.80;99.90;;;;;;5096312;28;20549;-77
2023/06/12 06:10:40;;;;;;;8.10;5.00;;;19.80;99.90;;;;;;5094753;28;20453;-77
2023/06/12 06:13:07;;;;;;;11.00;5.90;;;19.60;99.90;;;;;;5095161;28;20040;-77
2023/06/12 06:15:33;;;;;;;7.55;5.20;;;19.90;99.90;;;;;;5095958;28;20044;-78
2023/06/12 06:17:58;;;;;;;8.52;4.93;;;19.80;99.90;;;;;;5095113;28;20040;-79
2023/06/12 06:20:24;;;;;;;12.25;5.22;;;19.90;99.90;;;;;;5094791;28;20047;-78
2023/06/12 06:22:51;;;;;;;10.68;5.63;;;19.90;99.90;;;;;;5095628;28;20466;-78
2023/06/12 06:25:17;;;;;;;10.65;5.72;;;19.60;99.90;;;;;;5096001;28;20044;-79
2023/06/12 06:27:43;;;;;;;11.80;4.82;;;20.00;99.90;;;;;;5088688;28;20047;-78
2023/06/12 06:30:09;;;;;;;10.70;4.88;;;20.30;99.90;;;;;;5078766;28;20088;-77
2023/06/12 06:32:35;;;;;;;9.10;5.43;;;20.40;99.90;;;;;;5108273;28;20485;-82
2023/06/12 06:35:02;;;;;;;14.13;4.60;;;20.40;99.90;;;;;;5074222;28;20052;-85
2023/06/12 06:37:28;;;;;;;8.10;5.40;;;20.50;99.90;;;;;;5073219;28;20044;-81
2023/06/12 06:39:54;;;;;;;10.15;5.22;;;20.50;99.90;;;;;;5075241;28;20093;-80
2023/06/12 06:42:19;;;;;;;10.02;4.90;;;20.60;99.90;;;;;;5074767;28;20071;-77
2023/06/12 06:44:45;;;;;;;9.23;5.03;;;20.90;99.90;;;;;;5074646;28;20047;-78
2023/06/12 06:47:11;;;;;;;10.27;5.32;;;21.10;99.90;;;;;;5074350;28;20403;-77
2023/06/12 06:49:37;;;;;;;8.15;5.05;;;21.00;99.90;;;;;;5073555;28;20049;-76
2023/06/12 06:52:04;;;;;;;7.80;5.20;;;20.90;99.90;;;;;;5075155;28;20119;-77
2023/06/12 06:54:30;;;;;;;9.60;4.85;;;21.00;99.90;;;;;;5074807;28;20045;-77
2023/06/12 06:56:56;;;;;;;9.40;5.35;;;20.70;99.90;;;;;;5073780;28;20068;-77
2023/06/12 06:59:23;;;;;;;8.05;5.35;;;21.10;99.90;;;;;;5073717;28;20048;-77
2023/06/12 07:01:49;;;;;;;9.23;5.65;;;21.30;99.90;;;;;;5074953;28;20040;-77
2023/06/12 07:04:15;;;;;;;10.95;5.35;;;21.40;99.90;;;;;;5073617;28;20135;-77
2023/06/12 07:06:40;;;;;;;9.13;5.13;;;21.60;99.90;;;;;;5107179;28;20193;-77
2023/06/12 07:09:07;;;;;;;10.90;4.90;;;21.50;99.90;;;;;;5074585;28;20423;-80
2023/06/12 07:11:33;;;;;;;9.38;5.13;;;21.60;99.90;;;;;;5073818;28;20502;-78
2023/06/12 07:13:58;;;;;;;10.15;5.95;;;21.90;99.90;;;;;;5074396;28;20048;-78
2023/06/12 07:16:24;;;;;;;8.60;5.10;;;22.00;99.90;;;;;;5074381;28;20044;-79
2023/06/12 07:18:50;;;;;;;10.32;5.82;;;21.80;99.90;;;;;;5074187;28;20045;-79
2023/06/12 07:21:15;;;;;;;10.05;5.20;;;21.50;99.90;;;;;;5073355;28;20052;-81
2023/06/12 07:23:42;;;;;;;10.07;5.10;;;21.40;99.90;;;;;;5074010;28;20138;-78
2023/06/12 07:26:07;;;;;;;9.07;5.85;;;21.50;99.90;;;;;;5074043;28;20409;-79
2023/06/12 07:28:34;;;;;;;13.15;5.43;;;21.80;99.90;;;;;;5074173;28;20484;-79
2023/06/12 07:30:59;;;;;;;11.13;5.82;;;21.80;99.90;;;;;;5073062;28;20463;-79
2023/06/12 07:33:25;;;;;;;13.63;5.80;;;21.50;99.90;;;;;;5072715;28;20053;-79
2023/06/12 07:35:50;;;;;;;8.82;5.35;;;21.80;99.90;;;;;;5074020;28;20090;-78
2023/06/12 07:38:16;;;;;;;7.88;5.25;;;22.00;99.90;;;;;;5072923;28;20052;-78
2023/06/12 07:40:42;;;;;;;9.63;5.85;;;22.20;99.90;;;;;;5072571;28;20392;-79
2023/06/12 07:43:07;;;;;;;10.73;6.28;;;21.50;99.90;;;;;;5072848;28;20072;-79
2023/06/12 07:45:33;;;;;;;12.52;5.45;;;21.40;99.90;;;;;;5072603;28;20136;-79
2023/06/12 07:47:59;;;;;;;9.38;4.90;;;21.80;99.90;;;;;;5072525;28;20071;-79
2023/06/12 07:50:25;;;;;;;10.20;5.43;;;22.00;99.90;;;;;;5072656;28;20041;-79
2023/06/12 07:52:51;;;;;;;10.63;5.45;;;22.10;99.90;;;;;;5072770;28;20135;-79
2023/06/12 07:55:17;;;;;;;12.43;5.88;;;22.30;99.90;;;;;;5073798;28;20059;-78
2023/06/12 07:57:42;;;;;;;12.18;5.40;;;22.50;99.90;;;;;;5072663;28;20044;-79
2023/06/12 08:00:08;;;;;;;6.78;4.70;;;22.70;99.90;;;;;;5072406;28;20407;-79
2023/06/12 08:02:35;;;;;;;8.57;5.35;;;22.20;99.90;;;;;;5073507;28;20432;-79
2023/06/12 08:05:03;;;;;;;12.98;5.70;;;22.40;99.90;;;;;;5073673;28;20048;-79
2023/06/12 08:07:30;;;;;;;10.52;5.40;;;22.00;99.90;;;;;;5072302;28;20385;-78
2023/06/12 08:09:56;;;;;;;16.52;5.93;;;22.50;99.90;;;;;;5072223;28;20453;-78
2023/06/12 08:12:22;;;;;;;9.73;6.30;;;22.60;99.90;;;;;;5072148;28;20044;-79
2023/06/12 08:14:49;;;;;;;10.63;6.15;;;22.60;99.90;;;;;;5071978;28;20053;-77
2023/06/12 08:17:15;;;;;;;9.80;6.03;;;22.30;99.90;;;;;;5072010;28;20050;-77
2023/06/12 08:19:41;;;;;;;10.20;5.80;;;22.10;99.90;;;;;;5072226;28;20415;-78
2023/06/12 08:22:07;;;;;;;14.15;6.35;;;22.60;99.90;;;;;;5073317;28;20090;-77
2023/06/12 08:24:41;;;;;;;12.55;6.78;;;22.50;99.90;;;;;;5073061;28;20135;-77
2023/06/12 08:27:08;;;;;;;8.30;5.63;;;22.50;99.90;;;;;;5072255;28;20142;-79
2023/06/12 08:29:34;;;;;;;11.95;6.63;;;22.30;99.90;;;;;;5073345;28;20045;-78
2023/06/12 08:32:00;;;;;;;10.00;6.00;;;22.70;99.90;;;;;;5073411;28;20056;-78
2023/06/12 08:34:26;;;;;;;13.50;6.20;;;22.50;99.90;;;;;;5071768;28;20045;-78
2023/06/12 08:36:55;;;;;;;10.40;6.00;;;22.80;99.90;;;;;;5071972;28;20066;-78
2023/06/12 08:39:20;;;;;;;10.82;5.90;;;22.90;99.90;;;;;;5072213;28;20052;-79
2023/06/12 08:41:55;;;;;;;13.90;6.57;;;22.80;99.90;;;;;;5071820;28;20048;-79
2023/06/12 08:44:23;;;;;;;12.90;6.28;;;23.10;99.90;;;;;;5071913;28;20086;-79
2023/06/12 08:46:54;;;;;;;13.80;6.55;;;23.10;99.90;;;;;;5073276;28;20132;-77
2023/06/12 08:49:20;;;;;;;11.15;6.47;;;23.00;99.90;;;;;;5071947;28;20043;-78
2023/06/12 08:51:49;;;;;;;10.55;6.20;;;22.80;99.90;;;;;;5072010;28;20115;-77
2023/06/12 08:54:15;;;;;;;11.07;7.35;;;23.10;99.90;;;;;;5071830;28;20048;-78
2023/06/12 08:56:45;;;;;;;13.57;6.45;;;23.00;99.90;;;;;;5073203;28;20048;-77
2023/06/12 08:59:11;;;;;;;12.05;6.65;;;23.20;99.90;;;;;;5072606;28;20048;-78
2023/06/12 09:01:40;;;;;;;17.00;7.32;;;22.80;99.90;;;;;;5075774;28;20094;-77
2023/06/12 09:04:26;;;;;;;13.05;6.93;;;22.60;99.90;;;;;;5075857;28;20048;-77
2023/06/12 09:07:01;;;;;;;9.88;6.75;;;22.60;99.90;;;;;;5075676;28;20083;-76
2023/06/12 09:09:39;;;;;;;12.55;6.43;;;22.40;99.90;;;;;;5076833;28;20484;-78
2023/06/12 09:12:08;;;;;;;10.55;6.00;;;22.70;99.90;;;;;;5076093;28;20052;-79
2023/06/12 09:14:35;;;;;;;16.98;7.15;;;23.20;99.90;;;;;;5076826;28;20045;-79
2023/06/12 09:17:06;;;;;;;14.75;6.90;;;23.20;99.90;;;;;;5076695;28;20040;-76
2023/06/12 09:19:48;;;;;;;15.85;7.10;;;23.30;99.90;;;;;;5076671;28;20053;-76
2023/06/12 09:22:13;;;;;;;12.25;6.43;;;23.20;99.90;;;;;;5075577;28;20443;-75
2023/06/12 09:24:41;;;;;;;9.82;6.93;;;23.20;99.90;;;;;;5076757;28;20492;-77
2023/06/12 09:27:07;;;;;;;13.45;7.57;;;23.40;99.90;;;;;;5077018;28;20536;-79
2023/06/12 09:29:38;;;;;;;12.60;6.80;;;23.10;99.90;;;;;;5091154;28;20058;-80
2023/06/12 09:32:06;;;;;;;13.88;6.80;;;23.00;99.90;;;;;;5091448;28;20048;-79
2023/06/12 09:34:33;;;;;;;13.23;7.68;;;23.50;99.90;;;;;;5091003;28;20097;-79
2023/06/12 09:37:00;;;;;;;11.18;6.55;;;23.60;99.90;;;;;;5090685;28;20048;-80
2023/06/12 09:39:27;;;;;;;12.30;7.45;;;23.50;99.90;;;;;;5092392;28;20032;-79
2023/06/12 09:41:54;;;;;;;17.38;7.60;;;23.10;99.90;;;;;;5091583;28;20040;-80
2023/06/12 09:44:21;;;;;;;15.63;6.97;;;23.40;99.90;;;;;;5091252;28;20080;-80
2023/06/12 09:46:48;;;;;;;12.25;7.75;;;23.50;99.90;;;;;;5090829;28;20052;-79
2023/06/12 09:49:14;;;;;;;12.07;6.93;;;23.50;99.90;;;;;;5091078;28;20633;-80
2023/06/12 09:51:47;;;;;;;9.50;6.88;;;23.70;99.90;;;;;;5090463;28;20705;-80
2023/06/12 09:54:15;;;;;;;10.25;7.40;;;23.90;99.90;;;;;;5090487;28;20093;-79
2023/06/12 09:56:42;;;;;;;9.40;6.38;;;23.70;99.90;;;;;;5091877;28;20068;-80
2023/06/12 09:59:14;;;;;;;8.90;6.72;;;24.20;99.90;;;;;;5090425;28;20058;-81
2023/06/12 10:01:40;;;;;;;;;;;24.20;99.90;;;;;;5090901;28;20036;-80
2023/06/12 10:04:10;;;;;;;10.27;7.43;;;24.20;99.90;;;;;;5090239;28;19926;-82
2023/06/12 10:06:38;;;;;;;12.52;7.40;;;24.60;99.90;;;;;;5090706;28;20051;-81
2023/06/12 10:09:06;;;;;;;12.93;8.25;;;24.60;99.90;;;;;;5091871;28;20715;-81
2023/06/12 10:11:33;;;;;;;10.70;7.40;;;24.90;99.90;;;;;;5089013;28;20067;-80
2023/06/12 10:13:58;;;;;;;13.90;7.80;;;24.30;99.90;;;;;;5090046;28;20048;-79
2023/06/12 10:16:25;;;;;;;11.52;7.43;;;24.70;99.90;;;;;;5092157;28;20044;-81
2023/06/12 10:18:51;;;;;;;11.40;7.05;;;24.60;99.90;;;;;;5091012;28;20082;-81
2023/06/12 10:21:19;;;;;;;12.02;7.75;;;24.70;99.90;;;;;;5090509;28;20052;-79
2023/06/12 10:23:46;;;;;;;10.13;7.60;;;24.10;99.90;;;;;;5090453;28;20060;-81
2023/06/12 10:26:14;;;;;;;10.77;7.63;;;24.10;99.90;;;;;;5089649;28;20414;-81
2023/06/12 10:28:39;;;;;;;10.93;7.63;;;24.10;99.90;;;;;;5089485;28;20051;-79
2023/06/12 10:31:13;;;;;;;13.02;8.57;;;24.10;99.90;;;;;;5090411;28;20047;-81
2023/06/12 10:34:00;;;;;;;11.25;7.60;;;24.10;99.90;;;;;;5093954;28;20438;-79
2023/06/12 10:36:40;;;;;;;11.45;7.78;;;24.20;99.90;;;;;;5094139;28;20039;-80
2023/06/12 10:39:24;;;;;;;12.45;8.18;;;24.40;99.90;;;;;;5094680;28;20089;-79
2023/06/12 10:41:57;;;;;;;13.52;7.50;;;24.60;99.90;;;;;;5094172;28;20094;-78
2023/06/12 10:44:38;;;;;;;20.27;8.95;;;25.00;99.90;;;;;;5094264;28;20530;-75
2023/06/12 10:47:05;;;;;;;11.68;7.93;;;25.10;99.90;;;;;;5093200;28;20407;-78
2023/06/12 10:49:50;;;;;;;11.68;7.93;;;25.20;99.90;;;;;;5094146;28;20056;-78
2023/06/12 10:52:20;;;;;;;17.33;9.18;;;25.40;99.90;;;;;;5094053;28;20135;-78
2023/06/12 10:54:46;;;;;;;8.45;7.45;;;25.40;99.90;;;;;;5093961;28;20507;-76
2023/06/12 10:57:11;;;;;;;10.18;7.40;;;25.40;99.90;;;;;;5095295;28;20048;-78
2023/06/12 10:59:38;;;;;;;14.30;8.45;;;25.20;99.90;;;;;;5095050;28;20036;-78
2023/06/12 11:02:04;;;;;;;9.82;7.85;;;25.20;99.90;;;;;;5093959;28;20123;-78
2023/06/12 11:04:39;;;;;;;12.15;8.52;;;25.20;99.90;;;;;;5094995;28;20051;-77
2023/06/12 11:07:05;;;;;;;11.77;7.88;;;25.10;99.90;;;;;;5093568;28;20044;-78
2023/06/12 11:09:41;;;;;;;12.63;8.65;;;25.40;99.90;;;;;;5093636;28;20423;-78
2023/06/12 11:12:10;;;;;;;12.50;8.30;;;25.50;99.90;;;;;;5094965;28;20101;-79
2023/06/12 11:14:35;;;;;;;13.38;8.75;;;25.70;99.90;;;;;;5093811;28;20051;-78
2023/06/12 11:17:01;;;;;;;15.93;8.73;;;25.60;99.90;;;;;;5094749;28;20120;-78
2023/06/12 11:19:28;;;;;;;18.52;8.48;;;25.80;99.90;;;;;;5093494;28;20496;-79
2023/06/12 11:21:57;;;;;;;17.08;8.13;;;26.00;99.90;;;;;;5093244;28;20429;-78
2023/06/12 11:24:23;;;;;;;17.83;8.43;;;26.10;99.90;;;;;;5094731;28;20441;-78
2023/06/12 11:26:50;;;;;;;14.82;8.50;;;25.80;99.90;;;;;;5094622;28;20123;-79
2023/06/12 11:29:19;;;;;;;12.98;9.02;;;26.00;99.90;;;;;;5093242;28;20056;-79
2023/06/12 11:31:50;;;;;;;13.38;8.50;;;26.10;99.90;;;;;;5093503;28;20407;-82
2023/06/12 11:34:15;;;;;;;16.48;8.55;;;26.10;99.90;;;;;;5093109;28;20055;-80
2023/06/12 11:36:41;;;;;;;15.35;8.63;;;25.90;99.90;;;;;;5094714;28;20040;-79
2023/06/12 11:39:17;;;;;;;18.25;8.82;;;25.80;99.90;;;;;;5092949;28;20112;-79
2023/06/12 11:41:46;;;;;;;15.30;8.52;;;25.80;99.90;;;;;;5093016;28;20044;-79
2023/06/12 11:44:15;;;;;;;15.55;8.52;;;26.20;99.90;;;;;;5092938;28;20449;-80
2023/06/12 11:46:41;;;;;;;25.00;9.30;;;26.10;99.90;;;;;;5092985;28;20460;-80
2023/06/12 11:49:06;;;;;;;15.00;7.88;;;26.10;99.90;;;;;;5092848;28;20470;-80
2023/06/12 11:51:32;;;;;;;14.15;8.20;;;26.20;99.90;;;;;;5092793;28;20048;-80
2023/06/12 11:54:00;;;;;;;14.48;8.07;;;26.40;99.90;;;;;;5092805;28;20070;-80
2023/06/12 11:56:27;;;;;;;13.85;7.82;;;26.80;99.90;;;;;;5092579;28;20048;-80
2023/06/12 11:58:55;;;;;;;16.42;8.90;;;26.70;99.90;;;;;;5093892;28;20044;-79
2023/06/12 12:01:23;;;;;;;15.60;8.35;;;26.90;99.90;;;;;;5092659;28;20510;-82
2023/06/12 12:03:50;;;;;;;13.55;7.65;;;26.80;99.90;;;;;;5094025;28;20086;-79
2023/06/12 12:06:17;;;;;;;15.77;8.50;;;26.70;99.90;;;;;;5092318;28;20506;-79
2023/06/12 12:08:43;;;;;;;16.45;8.55;;;26.80;99.90;;;;;;5092709;28;20044;-80
2023/06/12 12:11:22;;;;;;;11.80;7.57;;;27.00;99.90;;;;;;5092502;28;20044;-80
2023/06/12 12:13:53;;;;;;;17.98;7.60;;;27.00;99.90;;;;;;5093974;28;20085;-80
2023/06/12 12:16:25;;;;;;;10.73;7.90;;;27.00;99.90;;;;;;5092490;28;20130;-80
2023/06/12 12:18:51;;;;;;;15.50;8.30;;;26.80;99.90;;;;;;5093850;28;20100;-76
2023/06/12 12:21:17;;;;;;;14.18;9.07;;;26.90;99.90;;;;;;5094017;28;20080;-79
2023/06/12 12:23:44;;;;;;;12.75;8.38;;;26.90;99.90;;;;;;5093488;28;20087;-81
2023/06/12 12:26:13;;;;;;;17.88;8.95;;;27.10;99.90;;;;;;5092150;28;20098;-81
2023/06/12 12:28:39;;;;;;;13.68;8.52;;;27.10;99.90;;;;;;5093448;28;20068;-78
2023/06/12 12:31:05;;;;;;;14.02;9.00;;;26.90;99.90;;;;;;5092207;28;20068;-78
2023/06/12 12:33:31;;;;;;;21.17;9.88;;;26.90;99.90;;;;;;5092216;28;20055;-79
2023/06/12 12:36:00;;;;;;;16.48;9.95;;;27.00;99.90;;;;;;5092229;28;20078;-84
2023/06/12 12:38:25;;;;;;;15.55;9.88;;;26.90;99.90;;;;;;5092360;28;20055;-81
2023/06/12 12:40:51;;;;;;;15.82;9.40;;;26.60;99.90;;;;;;5091997;28;20052;-80
2023/06/12 12:43:17;;;;;;;18.98;10.07;;;26.90;99.90;;;;;;5092020;28;20036;-82
2023/06/12 12:45:42;;;;;;;17.05;9.77;;;26.80;99.90;;;;;;5091741;28;20056;-80